Latest Weather Observations for Deniliquin

IDN60801

Issued at 10:03 pm EDT Monday 19 November 2018 (issued every 10 minutes, with the page automatically refreshed every 10 minutes)

About weather observations | Map of weather stations | Latest weather observations for NSW | Other Formats
Station Details ID: 074258 Name: DENILIQUIN AIRPORT AWS Lat: -35.56 Lon: 144.95 Height: 94.0 m
Data from the previous 72 hours. | See also: Recent months at Deniliquin
Date/Time
EDT
Temp
°C
App
Temp
°C
Dew
Point
°C
Rel
Hum
%
Delta-T
°C
Wind Press
QNH
hPa
Press
MSL
hPa
Rain since
9am
mm
Dir  Spd
km/h
Gust
km/h
Spd
kts
Gust
kts
19/10:00pm 25.4 21.6 5.6 28 10.2 ENE 15 20 8 11 1010.6 1010.3 0.0
19/09:30pm 24.5 20.6 5.3 29 9.7 ENE 15 17 8 9 1010.5 1010.2 0.0
19/09:00pm 24.7 21.0 4.5 27 10.1 ENE 13 15 7 8 1010.4 1010.1 0.0
19/08:30pm 25.8 22.1 4.3 25 10.8 ENE 13 15 7 8 1010.3 1010.0 0.0
19/08:00pm 28.0 23.9 4.3 22 12.1 ENE 15 19 8 10 1010.3 1010.0 0.0
19/07:30pm 29.8 25.7 4.4 20 13.1 NE 15 20 8 11 1010.0 1009.7 0.0
19/07:00pm 30.2 25.7 4.0 19 13.5 NE 17 22 9 12 1010.0 1009.7 0.0
19/06:30pm 30.7 26.1 3.7 18 13.9 NE 17 26 9 14 1009.9 1009.6 0.0
19/06:00pm 31.2 26.3 4.1 18 14.1 NE 19 30 10 16 1009.8 1009.5 0.0
19/05:30pm 31.0 26.0 4.7 19 13.7 ENE 20 33 11 18 1010.1 1009.8 0.0
19/05:00pm 31.7 26.9 4.5 18 14.2 NNE 19 28 10 15 1010.3 1010.0 0.0
19/04:30pm 31.1 26.6 4.0 18 14.0 N 17 26 9 14 1010.7 1010.4 0.0
19/04:00pm 31.3 26.5 4.9 19 13.9 NNE 19 32 10 17 1011.1 1010.8 0.0
19/03:30pm 30.6 25.6 4.4 19 13.6 NNE 20 32 11 17 1011.5 1011.2 0.0
19/03:00pm 29.6 26.1 3.6 19 13.2 NE 11 28 6 15 1012.0 1011.7 0.0
19/02:30pm 30.5 25.6 5.0 20 13.4 ENE 20 32 11 17 1012.5 1012.2 0.0
19/02:00pm 30.2 25.4 4.8 20 13.2 NNE 19 30 10 16 1013.1 1012.9 0.0
19/01:30pm 29.9 25.3 6.5 23 12.5 NE 20 33 11 18 1013.4 1013.2 0.0
19/01:00pm 29.3 25.0 7.8 26 11.7 NNE 20 32 11 17 1013.9 1013.7 0.0
19/12:30pm 28.7 23.4 8.4 28 11.1 ENE 26 39 14 21 1014.3 1014.1 0.0
19/12:00pm 28.3 23.6 9.1 30 10.6 NNE 24 35 13 19 1014.9 1014.7 0.0
19/11:30am 27.3 21.7 8.7 31 10.2 NE 28 35 15 19 1015.4 1015.2 0.0
19/11:00am 25.3 19.5 7.9 33 9.3 NE 28 41 15 22 1016.0 1015.7 0.0
19/10:30am 25.4 20.0 8.0 33 9.3 NNE 26 35 14 19 1016.3 1016.0 0.0
19/10:00am 24.2 18.8 8.2 36 8.5 NE 26 41 14 22 1016.6 1016.3 0.0
19/09:30am 23.4 17.2 7.9 37 8.2 NE 30 39 16 21 1016.8 1016.5 0.0
19/09:00am 22.1 16.3 7.9 40 7.4 NE 28 37 15 20 1016.9 1016.6 0.0
19/08:30am 20.6 13.9 7.2 42 6.9 NE 32 43 17 23 1016.8 1016.5 0.0
19/08:00am 19.8 12.6 7.5 45 6.3 ENE 35 44 19 24 1016.6 1016.3 0.0
19/07:30am 18.8 13.3 7.6 48 5.7 ENE 26 35 14 19 1016.7 1016.4 0.0
19/07:00am 17.9 12.8 7.6 51 5.2 ENE 24 33 13 18 1016.8 1016.5 0.0
19/06:30am 17.1 12.3 7.2 52 5.0 ENE 22 30 12 16 1016.6 1016.3 0.0
19/06:00am 17.0 11.8 7.1 52 4.9 ENE 24 32 13 17 1016.3 1016.0 0.0
19/05:30am 17.4 12.2 7.2 51 5.1 ENE 24 30 13 16 1016.1 1015.8 0.0
19/05:00am 17.7 12.0 6.9 49 5.4 ENE 26 35 14 19 1015.7 1015.4 0.0
19/04:30am 18.1 12.4 6.9 48 5.6 ENE 26 35 14 19 1015.7 1015.4 0.0
19/04:00am 18.3 13.0 6.8 47 5.8 ENE 24 33 13 18 1015.6 1015.3 0.0
19/03:30am 18.8 13.1 6.6 45 6.1 NE 26 33 14 18 1015.3 1015.1 0.0
19/03:00am 19.0 13.6 6.5 44 6.3 ENE 24 33 13 18 1015.6 1015.3 0.0
19/02:30am 19.1 14.0 6.2 43 6.4 ENE 22 30 12 16 1015.7 1015.4 0.0
19/02:00am 19.2 13.8 4.6 38 7.0 ENE 22 30 12 16 1016.1 1015.8 0.0
19/01:30am 20.2 14.4 2.5 31 8.3 ENE 22 28 12 15 1016.3 1016.0 0.0
19/01:00am 19.1 14.4 0.7 29 8.2 E 15 17 8 9 1016.3 1016.0 0.0
19/12:30am 20.0 15.3 1.0 28 8.6 E 15 19 8 10 1016.3 1016.0 0.0
19/12:00am 20.0 15.3 1.0 28 8.6 E 15 19 8 10 1016.4 1016.1 0.0
 
Date/Time
EDT
Temp
°C
App
Temp
°C
Dew
Point
°C
Rel
Hum
%
Delta-T
°C
Wind Press
QNH
hPa
Press
MSL
hPa
Rain since
9am
mm
Dir  Spd
km/h
Gust
km/h
Spd
kts
Gust
kts
18/11:30pm 20.6 15.9 1.0 27 8.9 E 15 19 8 10 1016.5 1016.2 0.0
18/11:00pm 20.9 16.2 1.2 27 9.0 E 15 17 8 9 1016.5 1016.2 0.0
18/10:30pm 21.3 17.0 1.0 26 9.3 E 13 17 7 9 1016.6 1016.3 0.0
18/10:00pm 22.1 17.4 0.6 24 9.8 E 15 17 8 9 1016.5 1016.2 0.0
18/09:30pm 22.2 17.5 0.7 24 9.8 E 15 19 8 10 1016.3 1016.0 0.0
18/09:00pm 23.1 18.4 0.9 23 10.3 E 15 17 8 9 1016.1 1015.8 0.0
18/08:30pm 23.5 19.0 -0.1 21 10.8 E 13 17 7 9 1016.1 1015.8 0.0
18/08:00pm 25.6 20.4 0.3 19 11.8 ENE 17 20 9 11 1016.0 1015.7 0.0
18/07:30pm 27.0 22.3 0.7 18 12.5 ENE 15 19 8 10 1015.8 1015.5 0.0
18/07:00pm 27.7 22.0 -0.4 16 13.1 ENE 19 28 10 15 1015.6 1015.3 0.0
18/06:30pm 28.4 24.0 0.2 16 13.4 NE 13 24 7 13 1015.4 1015.2 0.0
18/06:00pm 28.5 22.4 0.3 16 13.4 ENE 22 32 12 17 1015.6 1015.3 0.0
18/05:30pm 28.7 24.3 0.4 16 13.5 E 13 22 7 12 1015.7 1015.4 0.0
18/05:00pm 29.0 24.7 0.7 16 13.6 ESE 13 30 7 16 1015.6 1015.3 0.0
18/04:30pm 29.0 23.9 0.7 16 13.6 E 17 32 9 17 1015.9 1015.6 0.0
18/04:00pm 29.6 25.8 2.0 17 13.6 NE 11 33 6 18 1016.1 1015.8 0.0
18/03:30pm 28.0 22.9 0.7 17 13.1 ENE 17 30 9 16 1016.6 1016.3 0.0
18/03:00pm 28.9 24.7 1.4 17 13.4 NE 13 26 7 14 1017.0 1016.7 0.0
18/02:30pm 27.8 24.2 2.8 20 12.4 ESE 11 20 6 11 1017.6 1017.3 0.0
18/02:00pm 26.9 22.0 2.1 20 12.0 E 17 32 9 17 1018.1 1017.8 0.0
18/01:30pm 27.6 22.4 3.3 21 12.1 E 20 28 11 15 1018.4 1018.1 0.0
18/01:00pm 27.3 21.9 4.4 23 11.6 NE 22 35 12 19 1018.9 1018.6 0.0
18/12:30pm 26.8 21.4 4.6 24 11.3 ENE 22 33 12 18 1019.2 1018.9 0.0
18/12:00pm 26.1 20.4 5.1 26 10.7 ENE 24 35 13 19 1019.7 1019.4 0.0
18/11:30am 25.3 19.7 5.5 28 10.1 ENE 24 33 13 18 1020.0 1019.7 0.0
18/11:00am 24.7 18.6 6.4 31 9.5 ENE 28 39 15 21 1020.2 1019.9 0.0
18/10:30am 23.6 17.8 6.4 33 8.9 ENE 26 37 14 20 1020.5 1020.2 0.0
18/10:00am 22.8 15.8 7.0 36 8.2 ENE 33 43 18 23 1020.6 1020.3 0.0
18/09:30am 21.5 14.2 7.0 39 7.5 ENE 35 43 19 23 1020.6 1020.3 0.0
18/09:00am 21.1 14.3 7.0 40 7.2 ENE 32 43 17 23 1020.7 1020.4 0.0
18/08:30am 19.8 12.5 7.2 44 6.4 ENE 35 46 19 25 1020.6 1020.3 0.0
18/08:00am 18.9 12.3 7.7 48 5.7 ENE 32 39 17 21 1020.5 1020.2 0.0
18/07:30am 17.9 12.5 7.9 52 5.1 ENE 26 35 14 19 1020.5 1020.2 0.0
18/07:00am 17.0 12.3 7.6 54 4.7 ENE 22 28 12 15 1020.3 1020.0 0.0
18/06:30am 15.9 11.6 7.7 58 4.1 E 20 28 11 15 1020.0 1019.7 0.0
18/06:00am 15.5 11.3 7.5 59 4.0 ENE 19 26 10 14 1019.7 1019.4 0.0
18/05:30am 14.3 10.7 6.9 61 3.6 E 15 19 8 10 1019.5 1019.2 0.0
18/05:00am 14.3 11.0 6.2 58 3.9 E 13 15 7 8 1019.4 1019.1 0.0
18/04:30am 15.1 10.9 5.9 54 4.4 E 17 19 9 10 1019.2 1018.9 0.0
18/04:00am 15.2 11.1 6.0 54 4.4 E 17 20 9 11 1019.3 1019.0 0.0
18/03:30am 15.3 10.8 6.1 54 4.5 ESE 19 24 10 13 1019.2 1018.9 0.0
18/03:00am 16.0 11.3 6.2 52 4.8 ESE 20 26 11 14 1019.1 1018.8 0.0
18/02:30am 15.8 10.4 6.5 54 4.6 SE 24 28 13 15 1018.9 1018.6 0.0
18/02:00am 15.6 10.7 6.9 56 4.3 SE 22 32 12 17 1018.9 1018.6 0.0
18/01:30am 16.0 11.1 6.7 54 4.6 SE 22 32 12 17 1018.9 1018.6 0.0
18/01:00am 16.2 11.8 6.6 53 4.7 SSE 19 24 10 13 1018.9 1018.6 0.0
18/12:30am 16.6 12.2 6.7 52 4.9 S 19 24 10 13 1018.8 1018.5 0.0
18/12:00am 17.0 12.4 6.5 50 5.2 S 20 28 11 15 1019.0 1018.7 0.0
 
Date/Time
EDT
Temp
°C
App
Temp
°C
Dew
Point
°C
Rel
Hum
%
Delta-T
°C
Wind Press
QNH
hPa
Press
MSL
hPa
Rain since
9am
mm
Dir  Spd
km/h
Gust
km/h
Spd
kts
Gust
kts
17/11:30pm 17.7 12.3 6.3 47 5.6 S 24 33 13 18 1018.8 1018.5 0.0
17/11:00pm 18.6 13.1 5.8 43 6.3 S 24 32 13 17 1018.9 1018.6 0.0
17/10:30pm 19.4 13.8 5.5 40 6.8 S 24 33 13 18 1019.1 1018.8 0.0
17/10:00pm 20.1 14.7 4.6 36 7.5 S 22 32 12 17 1018.9 1018.6 0.0
17/09:30pm 21.1 14.4 3.8 32 8.3 S 28 35 15 19 1018.6 1018.3 0.0
17/09:00pm 21.9 15.3 2.1 27 9.3 S 26 32 14 17 1018.4 1018.1 0.0
17/08:30pm 22.7 16.7 -1.4 20 10.6 S 20 26 11 14 1018.0 1017.7 0.0
17/08:00pm 24.0 17.1 -2.5 17 11.6 SSW 24 28 13 15 1017.8 1017.5 0.0
17/07:30pm 25.2 18.5 -4.2 14 12.6 S 22 28 12 15 1017.5 1017.2 0.0
17/07:00pm 26.0 19.3 -4.5 13 13.0 S 22 30 12 16 1017.2 1016.9 0.0
17/06:30pm 26.5 20.1 -5.2 12 13.5 S 20 28 11 15 1017.1 1016.8 0.0
17/06:00pm 26.3 20.1 -5.3 12 13.4 S 19 24 10 13 1017.1 1016.8 0.0
17/05:30pm 27.4 21.6 -4.5 12 13.8 SSE 17 28 9 15 1017.2 1016.9 0.0
17/05:00pm 26.5 20.0 -6.3 11 13.6 S 20 30 11 16 1017.4 1017.1 0.0
17/04:30pm 26.7 20.2 -6.2 11 13.8 S 20 28 11 15 1017.6 1017.3 0.0
17/04:00pm 26.9 21.1 -4.9 12 13.6 SSW 17 30 9 16 1017.8 1017.5 0.0
17/03:30pm 26.7 20.3 -5.0 12 13.5 S 20 30 11 16 1018.0 1017.7 0.0
17/03:00pm 26.5 20.3 -5.2 12 13.4 SE 19 30 10 16 1018.3 1018.0 0.0
17/02:30pm 25.8 20.5 -3.7 14 12.8 SSE 15 26 8 14 1018.6 1018.3 0.0
17/02:00pm 25.5 20.6 -3.0 15 12.5 SSE 13 28 7 15 1019.0 1018.7 0.0
17/01:30pm 24.0 19.3 -1.8 18 11.4 S 13 20 7 11 1019.2 1018.9 0.0
17/01:00pm 23.9 18.7 0.3 21 10.8 S 17 26 9 14 1019.5 1019.2 0.0
17/12:30pm 22.9 18.0 -0.6 21 10.6 SSE 15 22 8 12 1019.9 1019.6 0.0
17/12:00pm 21.9 16.8 1.0 25 9.6 SSE 17 28 9 15 1020.2 1019.9 0.0
17/11:30am 21.6 16.4 2.3 28 9.1 S 19 26 10 14 1020.3 1020.0 0.0
17/11:00am 20.3 15.4 1.7 29 8.5 SSE 17 24 9 13 1020.4 1020.1 0.0
17/10:30am 19.1 13.8 2.0 32 7.8 SSE 19 30 10 16 1020.3 1020.0 0.0
17/10:00am 18.8 14.0 2.6 34 7.5 S 17 28 9 15 1020.3 1020.0 0.0
17/09:30am 16.8 11.5 1.7 36 6.7 S 19 28 10 15 1020.4 1020.1 0.0
17/09:00am 16.0 10.5 1.7 38 6.3 S 20 30 11 16 1020.3 1020.0 0.0
17/08:30am 14.6 8.6 1.2 40 5.8 S 22 28 12 15 1020.2 1019.9 0.0
17/08:00am 13.8 8.2 1.1 42 5.4 S 20 30 11 16 1020.1 1019.8 0.0
17/07:30am 12.7 7.2 0.8 44 5.0 S 19 24 10 13 1019.8 1019.5 0.0
17/07:00am 10.6 6.5 2.2 56 3.6 SW 13 19 7 10 1019.7 1019.4 0.0
17/06:30am 9.0 5.0 2.6 64 2.7 SW 13 17 7 9 1019.3 1019.0 0.0
17/06:00am 8.7 5.0 2.1 63 2.8 SW 11 15 6 8 1019.0 1018.7 0.0
17/05:30am 11.1 6.2 1.9 53 3.9 SSW 17 20 9 11 1018.8 1018.5 0.0
17/05:00am 11.9 6.7 2.4 52 4.1 S 19 28 10 15 1018.5 1018.2 0.0
17/04:30am 12.4 6.7 2.6 51 4.3 S 22 33 12 18 1018.3 1018.0 0.0
17/04:00am 12.4 7.1 3.1 53 4.1 S 20 26 11 14 1018.3 1018.0 0.0
17/03:30am 12.4 7.2 3.4 54 4.0 S 20 28 11 15 1018.3 1018.0 0.0
17/03:00am 13.1 6.8 4.0 54 4.1 S 26 32 14 17 1018.4 1018.1 0.0
17/02:30am 13.4 7.6 4.6 55 4.1 S 24 35 13 19 1018.5 1018.2 0.0
17/02:00am 13.9 7.8 4.8 54 4.2 S 26 33 14 18 1018.5 1018.2 0.0
17/01:30am 14.5 8.4 4.8 52 4.5 S 26 35 14 19 1018.6 1018.3 0.0
17/01:00am 15.2 9.1 4.9 50 4.8 S 26 37 14 20 1018.8 1018.5 0.0
17/12:30am 16.1 9.2 4.5 46 5.5 S 30 41 16 22 1018.8 1018.5 0.0
17/12:00am 16.9 11.1 4.3 43 5.9 S 24 37 13 20 1018.8 1018.5 0.0
 
Date/Time
EDT
Temp
°C
App
Temp
°C
Dew
Point
°C
Rel
Hum
%
Delta-T
°C
Wind Press
QNH
hPa
Press
MSL
hPa
Rain since
9am
mm
Dir  Spd
km/h
Gust
km/h
Spd
kts
Gust
kts
16/11:30pm 17.5 11.7 4.5 42 6.2 S 24 32 13 17 1018.7 1018.4 0.0
16/11:00pm 18.2 13.5 3.3 37 6.9 S 17 22 9 12 1018.5 1018.2 0.0
16/10:30pm 18.8 14.0 2.6 34 7.5 SSE 17 20 9 11 1018.4 1018.1 0.0

Other Formats:

Comma delimited format used in spreadsheet applications
http://www.bom.gov.au/fwo/IDN60801/IDN60801.95869.axf

JavaScript Object Notation format (JSON) in row-major order
http://www.bom.gov.au/fwo/IDN60801/IDN60801.95869.json